Alexander, NC (28701)

6:54 PM EDT on August 31, 2016 (GMT -0400)
Northern Horizons | | Change Station

Elev 2215 ft 35.75 °N, 82.63 °W | Updated 20 seconds ago

Mostly Cloudy
Mostly Cloudy
74.4 °F
Feels Like 73 °F
N
0.0
Wind Variable Wind from ENE
Gusts 1.0 mph

Today
High -- | Low -- °F
--% Chance of Precip.
Yesterday
High -- | Low -- °F
Precip. -- in
Pressure 29.92 in
Visibility 10.0 miles
Clouds Mostly Cloudy 8500 ft
Heat Index 73 °F
Dew Point 71 °F
Humidity 88%
Rainfall 0.02 in
Snow Depth Not available.
7:02 AM 7:58 PM
Waning Crescent, 0% visible
METAR KAVL 312154Z 12003KT 10SM BKN085 29/16 A3000 RMK AO2 SLP130 T02890156
Pressure 29.92 in
Visibility 10.0 miles
Clouds Mostly Cloudy 8500 ft
Heat Index 73 °F
Dew Point 71 °F
Humidity 88%
Rainfall 0.02 in
Snow Depth Not available.
7:02 AM 7:58 PM
Waning Crescent, 0% visible
METAR KAVL 312154Z 12003KT 10SM BKN085 29/16 A3000 RMK AO2 SLP130 T02890156

10-Day Weather Forecast

Almanac

Astronomy

Aug. 31, 2016 Rise Set
Actual Time
Civil Twilight
Nautical Twilight
Astronomical Twilight
Moon
Length of Visible Light
Length of Day
Tomorrow will be .
, % of the Moon is Illuminated

Today's Extremes

State Highs State Lows

Community

WunderPhotos

Upload Photos

1,936,204 photos uploaded!

WunderBlog® & News

Nearby

Air Quality

  Air Quality AQ Index Pollutant
Not available.

Snow Depth

Station Depth Elevation

Earthquake Activity

City Distance Mag. Time & Date
Minimum magnitude displayed is 2.5.

Coastal Water Temperatures

Place Temperature

Stations

Nearby Weather Stations

Station Location Temp. Windchill Dew Point Humidity Wind Precip. Elev Updated Type
                   

Watches & Warnings

There are currently no watches in effect.